sensor_id;sensor_type;location;lat;lon;timestamp;P1;durP1;ratioP1;P2;durP2;ratioP2
69678;SDS011;56915;52.046;4.854;2022-08-24T00:00:15;14.32;;;9.57;;
69678;SDS011;56915;52.046;4.854;2022-08-24T00:02:44;16.15;;;10.57;;
69678;SDS011;56915;52.046;4.854;2022-08-24T00:05:12;16.43;;;10.40;;
69678;SDS011;56915;52.046;4.854;2022-08-24T00:07:40;16.67;;;10.45;;
69678;SDS011;56915;52.046;4.854;2022-08-24T00:10:07;17.42;;;11.35;;
69678;SDS011;56915;52.046;4.854;2022-08-24T00:12:35;16.02;;;10.98;;
69678;SDS011;56915;52.046;4.854;2022-08-24T00:15:03;16.25;;;9.77;;
69678;SDS011;56915;52.046;4.854;2022-08-24T00:17:31;17.07;;;9.60;;
69678;SDS011;56915;52.046;4.854;2022-08-24T00:19:59;11.55;;;8.32;;
69678;SDS011;56915;52.046;4.854;2022-08-24T00:22:26;13.50;;;8.95;;
69678;SDS011;56915;52.046;4.854;2022-08-24T00:24:54;15.20;;;9.30;;
69678;SDS011;56915;52.046;4.854;2022-08-24T00:27:22;15.95;;;9.93;;
69678;SDS011;56915;52.046;4.854;2022-08-24T00:29:49;15.87;;;10.57;;
69678;SDS011;56915;52.046;4.854;2022-08-24T00:32:16;16.98;;;10.80;;
69678;SDS011;56915;52.046;4.854;2022-08-24T00:34:43;17.90;;;11.10;;
69678;SDS011;56915;52.046;4.854;2022-08-24T00:37:24;18.75;;;11.52;;
69678;SDS011;56915;52.046;4.854;2022-08-24T00:39:53;19.55;;;11.98;;
69678;SDS011;56915;52.046;4.854;2022-08-24T00:42:21;18.17;;;11.70;;
69678;SDS011;56915;52.046;4.854;2022-08-24T00:44:49;21.38;;;12.45;;
69678;SDS011;56915;52.046;4.854;2022-08-24T00:47:17;18.70;;;12.30;;
69678;SDS011;56915;52.046;4.854;2022-08-24T00:49:52;23.27;;;12.40;;
69678;SDS011;56915;52.046;4.854;2022-08-24T00:52:31;22.23;;;12.95;;
69678;SDS011;56915;52.046;4.854;2022-08-24T00:55:16;23.00;;;13.40;;
69678;SDS011;56915;52.046;4.854;2022-08-24T00:57:46;19.85;;;12.35;;
69678;SDS011;56915;52.046;4.854;2022-08-24T01:00:21;22.08;;;14.00;;
69678;SDS011;56915;52.046;4.854;2022-08-24T01:02:52;21.35;;;13.48;;
69678;SDS011;56915;52.046;4.854;2022-08-24T01:05:23;21.58;;;13.82;;
69678;SDS011;56915;52.046;4.854;2022-08-24T01:07:50;23.93;;;13.50;;
69678;SDS011;56915;52.046;4.854;2022-08-24T01:10:22;21.52;;;13.05;;
69678;SDS011;56915;52.046;4.854;2022-08-24T01:12:51;21.25;;;13.18;;
69678;SDS011;56915;52.046;4.854;2022-08-24T01:15:27;20.45;;;12.85;;
69678;SDS011;56915;52.046;4.854;2022-08-24T01:17:56;20.60;;;12.60;;
69678;SDS011;56915;52.046;4.854;2022-08-24T01:20:55;22.53;;;13.27;;
69678;SDS011;56915;52.046;4.854;2022-08-24T01:23:37;24.27;;;13.90;;
69678;SDS011;56915;52.046;4.854;2022-08-24T01:26:07;24.13;;;14.05;;
69678;SDS011;56915;52.046;4.854;2022-08-24T01:28:38;21.77;;;13.25;;
69678;SDS011;56915;52.046;4.854;2022-08-24T01:31:07;24.55;;;14.05;;
69678;SDS011;56915;52.046;4.854;2022-08-24T01:33:34;20.40;;;13.10;;
69678;SDS011;56915;52.046;4.854;2022-08-24T01:38:44;24.23;;;13.70;;
69678;SDS011;56915;52.046;4.854;2022-08-24T01:41:13;22.90;;;13.75;;
69678;SDS011;56915;52.046;4.854;2022-08-24T01:43:40;24.20;;;14.25;;
69678;SDS011;56915;52.046;4.854;2022-08-24T01:46:07;23.13;;;14.17;;
69678;SDS011;56915;52.046;4.854;2022-08-24T01:48:34;26.33;;;14.95;;
69678;SDS011;56915;52.046;4.854;2022-08-24T01:51:00;27.25;;;15.63;;
69678;SDS011;56915;52.046;4.854;2022-08-24T01:53:27;30.48;;;15.55;;
69678;SDS011;56915;52.046;4.854;2022-08-24T01:55:54;26.65;;;15.55;;
69678;SDS011;56915;52.046;4.854;2022-08-24T01:58:21;29.17;;;15.20;;
69678;SDS011;56915;52.046;4.854;2022-08-24T02:00:48;27.95;;;15.40;;
69678;SDS011;56915;52.046;4.854;2022-08-24T02:03:14;32.17;;;17.08;;
69678;SDS011;56915;52.046;4.854;2022-08-24T02:05:41;30.73;;;16.58;;
69678;SDS011;56915;52.046;4.854;2022-08-24T02:08:08;32.55;;;17.65;;
69678;SDS011;56915;52.046;4.854;2022-08-24T02:10:35;29.47;;;16.87;;
69678;SDS011;56915;52.046;4.854;2022-08-24T02:13:02;27.98;;;16.38;;
69678;SDS011;56915;52.046;4.854;2022-08-24T02:15:34;31.10;;;17.48;;
69678;SDS011;56915;52.046;4.854;2022-08-24T02:18:06;26.70;;;15.13;;
69678;SDS011;56915;52.046;4.854;2022-08-24T02:20:41;29.30;;;15.25;;
69678;SDS011;56915;52.046;4.854;2022-08-24T02:23:08;25.10;;;14.77;;
69678;SDS011;56915;52.046;4.854;2022-08-24T02:25:35;23.92;;;14.10;;
69678;SDS011;56915;52.046;4.854;2022-08-24T02:28:02;22.80;;;13.40;;
69678;SDS011;56915;52.046;4.854;2022-08-24T02:30:30;20.65;;;12.35;;
69678;SDS011;56915;52.046;4.854;2022-08-24T02:32:57;18.65;;;10.95;;
69678;SDS011;56915;52.046;4.854;2022-08-24T02:35:26;18.87;;;10.27;;
69678;SDS011;56915;52.046;4.854;2022-08-24T02:37:53;16.33;;;9.80;;
69678;SDS011;56915;52.046;4.854;2022-08-24T02:40:20;12.70;;;8.52;;
69678;SDS011;56915;52.046;4.854;2022-08-24T02:42:47;14.48;;;9.68;;
69678;SDS011;56915;52.046;4.854;2022-08-24T02:45:14;17.15;;;10.93;;
69678;SDS011;56915;52.046;4.854;2022-08-24T02:47:41;16.00;;;10.53;;
69678;SDS011;56915;52.046;4.854;2022-08-24T02:50:09;20.55;;;12.07;;
69678;SDS011;56915;52.046;4.854;2022-08-24T02:52:37;28.30;;;15.20;;
69678;SDS011;56915;52.046;4.854;2022-08-24T02:55:13;22.48;;;13.38;;
69678;SDS011;56915;52.046;4.854;2022-08-24T02:57:45;22.50;;;12.60;;
69678;SDS011;56915;52.046;4.854;2022-08-24T03:00:13;24.87;;;13.40;;
69678;SDS011;56915;52.046;4.854;2022-08-24T03:02:42;30.08;;;16.52;;
69678;SDS011;56915;52.046;4.854;2022-08-24T03:05:09;25.95;;;14.25;;
69678;SDS011;56915;52.046;4.854;2022-08-24T03:07:36;27.70;;;15.27;;
69678;SDS011;56915;52.046;4.854;2022-08-24T03:10:04;28.17;;;15.70;;
69678;SDS011;56915;52.046;4.854;2022-08-24T03:12:32;24.17;;;13.50;;
69678;SDS011;56915;52.046;4.854;2022-08-24T03:15:00;23.75;;;13.57;;
69678;SDS011;56915;52.046;4.854;2022-08-24T03:17:29;23.42;;;14.02;;
69678;SDS011;56915;52.046;4.854;2022-08-24T03:19:59;26.02;;;13.95;;
69678;SDS011;56915;52.046;4.854;2022-08-24T03:22:26;28.50;;;15.05;;
69678;SDS011;56915;52.046;4.854;2022-08-24T03:24:53;26.60;;;14.80;;
69678;SDS011;56915;52.046;4.854;2022-08-24T03:27:20;25.85;;;14.77;;
69678;SDS011;56915;52.046;4.854;2022-08-24T03:29:47;25.17;;;13.95;;
69678;SDS011;56915;52.046;4.854;2022-08-24T03:32:15;22.55;;;12.70;;
69678;SDS011;56915;52.046;4.854;2022-08-24T03:34:42;22.75;;;13.60;;
69678;SDS011;56915;52.046;4.854;2022-08-24T03:37:09;21.60;;;12.40;;
69678;SDS011;56915;52.046;4.854;2022-08-24T03:39:35;21.25;;;12.02;;
69678;SDS011;56915;52.046;4.854;2022-08-24T03:42:02;21.15;;;12.45;;
69678;SDS011;56915;52.046;4.854;2022-08-24T03:44:29;20.55;;;11.55;;
69678;SDS011;56915;52.046;4.854;2022-08-24T03:46:56;24.85;;;12.27;;
69678;SDS011;56915;52.046;4.854;2022-08-24T03:49:23;25.27;;;13.67;;
69678;SDS011;56915;52.046;4.854;2022-08-24T03:51:50;30.27;;;15.07;;
69678;SDS011;56915;52.046;4.854;2022-08-24T03:54:18;25.45;;;13.75;;
69678;SDS011;56915;52.046;4.854;2022-08-24T03:56:44;25.02;;;14.02;;
69678;SDS011;56915;52.046;4.854;2022-08-24T03:59:12;26.13;;;13.73;;
69678;SDS011;56915;52.046;4.854;2022-08-24T04:01:45;28.27;;;14.30;;
69678;SDS011;56915;52.046;4.854;2022-08-24T04:04:11;30.30;;;16.15;;
69678;SDS011;56915;52.046;4.854;2022-08-24T04:06:38;30.58;;;16.13;;
69678;SDS011;56915;52.046;4.854;2022-08-24T04:09:09;28.27;;;15.80;;
69678;SDS011;56915;52.046;4.854;2022-08-24T04:11:37;30.83;;;16.35;;
69678;SDS011;56915;52.046;4.854;2022-08-24T04:14:07;30.80;;;17.10;;
69678;SDS011;56915;52.046;4.854;2022-08-24T04:16:45;34.38;;;17.83;;
69678;SDS011;56915;52.046;4.854;2022-08-24T04:19:22;36.50;;;17.52;;
69678;SDS011;56915;52.046;4.854;2022-08-24T04:21:49;37.22;;;17.88;;
69678;SDS011;56915;52.046;4.854;2022-08-24T04:24:16;31.77;;;17.48;;
69678;SDS011;56915;52.046;4.854;2022-08-24T04:26:44;30.87;;;15.27;;
69678;SDS011;56915;52.046;4.854;2022-08-24T04:29:12;29.08;;;15.88;;
69678;SDS011;56915;52.046;4.854;2022-08-24T04:31:40;26.58;;;14.38;;
69678;SDS011;56915;52.046;4.854;2022-08-24T04:34:08;30.60;;;15.18;;
69678;SDS011;56915;52.046;4.854;2022-08-24T04:36:36;30.50;;;15.70;;
69678;SDS011;56915;52.046;4.854;2022-08-24T04:39:05;27.83;;;14.63;;
69678;SDS011;56915;52.046;4.854;2022-08-24T04:41:32;26.17;;;15.07;;
69678;SDS011;56915;52.046;4.854;2022-08-24T04:44:00;28.58;;;14.95;;
69678;SDS011;56915;52.046;4.854;2022-08-24T04:46:27;31.40;;;15.73;;
69678;SDS011;56915;52.046;4.854;2022-08-24T04:48:54;30.92;;;15.57;;
69678;SDS011;56915;52.046;4.854;2022-08-24T04:51:21;30.83;;;16.00;;
69678;SDS011;56915;52.046;4.854;2022-08-24T04:53:48;30.35;;;15.52;;
69678;SDS011;56915;52.046;4.854;2022-08-24T04:56:20;28.73;;;13.52;;
69678;SDS011;56915;52.046;4.854;2022-08-24T04:58:49;24.33;;;12.23;;
69678;SDS011;56915;52.046;4.854;2022-08-24T05:01:18;22.42;;;11.82;;
69678;SDS011;56915;52.046;4.854;2022-08-24T05:03:48;18.73;;;11.50;;
69678;SDS011;56915;52.046;4.854;2022-08-24T05:06:17;14.98;;;9.43;;
69678;SDS011;56915;52.046;4.854;2022-08-24T05:08:44;17.35;;;10.25;;
69678;SDS011;56915;52.046;4.854;2022-08-24T05:11:13;18.00;;;10.52;;
69678;SDS011;56915;52.046;4.854;2022-08-24T05:13:42;17.13;;;9.88;;
69678;SDS011;56915;52.046;4.854;2022-08-24T05:16:11;18.73;;;10.90;;
69678;SDS011;56915;52.046;4.854;2022-08-24T05:18:39;16.52;;;9.93;;
69678;SDS011;56915;52.046;4.854;2022-08-24T05:21:07;17.42;;;11.25;;
69678;SDS011;56915;52.046;4.854;2022-08-24T05:23:37;21.52;;;12.30;;
69678;SDS011;56915;52.046;4.854;2022-08-24T05:26:19;31.05;;;17.73;;
69678;SDS011;56915;52.046;4.854;2022-08-24T05:28:55;31.47;;;15.53;;
69678;SDS011;56915;52.046;4.854;2022-08-24T05:31:24;26.85;;;14.65;;
69678;SDS011;56915;52.046;4.854;2022-08-24T05:33:53;36.08;;;18.48;;
69678;SDS011;56915;52.046;4.854;2022-08-24T05:36:21;36.70;;;19.20;;
69678;SDS011;56915;52.046;4.854;2022-08-24T05:39:04;38.13;;;19.98;;
69678;SDS011;56915;52.046;4.854;2022-08-24T05:41:37;38.17;;;19.40;;
69678;SDS011;56915;52.046;4.854;2022-08-24T05:44:10;34.80;;;18.80;;
69678;SDS011;56915;52.046;4.854;2022-08-24T05:46:38;38.95;;;20.05;;
69678;SDS011;56915;52.046;4.854;2022-08-24T05:49:05;34.33;;;19.75;;
69678;SDS011;56915;52.046;4.854;2022-08-24T05:51:33;36.38;;;18.90;;
69678;SDS011;56915;52.046;4.854;2022-08-24T05:54:00;33.63;;;19.30;;
69678;SDS011;56915;52.046;4.854;2022-08-24T05:56:30;32.47;;;18.27;;
69678;SDS011;56915;52.046;4.854;2022-08-24T05:58:59;32.03;;;18.15;;
69678;SDS011;56915;52.046;4.854;2022-08-24T06:01:26;32.88;;;17.40;;
69678;SDS011;56915;52.046;4.854;2022-08-24T06:03:54;33.08;;;18.27;;
69678;SDS011;56915;52.046;4.854;2022-08-24T06:06:23;34.40;;;18.23;;
69678;SDS011;56915;52.046;4.854;2022-08-24T06:08:53;30.67;;;18.27;;
69678;SDS011;56915;52.046;4.854;2022-08-24T06:11:43;30.60;;;17.67;;
69678;SDS011;56915;52.046;4.854;2022-08-24T06:14:11;31.52;;;17.42;;
69678;SDS011;56915;52.046;4.854;2022-08-24T06:16:41;35.85;;;18.77;;
69678;SDS011;56915;52.046;4.854;2022-08-24T06:19:10;31.17;;;18.40;;
69678;SDS011;56915;52.046;4.854;2022-08-24T06:21:39;30.30;;;17.45;;
69678;SDS011;56915;52.046;4.854;2022-08-24T06:24:06;30.75;;;18.00;;
69678;SDS011;56915;52.046;4.854;2022-08-24T06:26:33;28.63;;;17.60;;
69678;SDS011;56915;52.046;4.854;2022-08-24T06:29:20;27.90;;;16.73;;
69678;SDS011;56915;52.046;4.854;2022-08-24T06:31:47;28.67;;;16.80;;
69678;SDS011;56915;52.046;4.854;2022-08-24T06:34:20;26.77;;;16.67;;
69678;SDS011;56915;52.046;4.854;2022-08-24T06:36:48;28.15;;;17.30;;
69678;SDS011;56915;52.046;4.854;2022-08-24T06:39:15;25.52;;;16.75;;
69678;SDS011;56915;52.046;4.854;2022-08-24T06:41:43;27.00;;;16.27;;
69678;SDS011;56915;52.046;4.854;2022-08-24T06:44:10;26.97;;;16.40;;
69678;SDS011;56915;52.046;4.854;2022-08-24T06:46:37;27.48;;;16.45;;
69678;SDS011;56915;52.046;4.854;2022-08-24T06:49:04;25.33;;;16.13;;
69678;SDS011;56915;52.046;4.854;2022-08-24T06:51:31;24.23;;;15.43;;
69678;SDS011;56915;52.046;4.854;2022-08-24T06:53:58;26.85;;;16.20;;
69678;SDS011;56915;52.046;4.854;2022-08-24T06:56:25;23.93;;;15.60;;
69678;SDS011;56915;52.046;4.854;2022-08-24T06:58:52;22.75;;;14.75;;
69678;SDS011;56915;52.046;4.854;2022-08-24T07:01:20;21.45;;;14.70;;
69678;SDS011;56915;52.046;4.854;2022-08-24T07:03:50;22.08;;;15.27;;
69678;SDS011;56915;52.046;4.854;2022-08-24T07:06:23;25.25;;;15.30;;
69678;SDS011;56915;52.046;4.854;2022-08-24T07:08:50;22.43;;;14.33;;
69678;SDS011;56915;52.046;4.854;2022-08-24T07:11:18;19.92;;;13.75;;
69678;SDS011;56915;52.046;4.854;2022-08-24T07:13:45;21.63;;;14.60;;
69678;SDS011;56915;52.046;4.854;2022-08-24T07:16:13;24.52;;;14.70;;
69678;SDS011;56915;52.046;4.854;2022-08-24T07:18:43;26.05;;;15.13;;
69678;SDS011;56915;52.046;4.854;2022-08-24T07:21:15;21.40;;;14.67;;
69678;SDS011;56915;52.046;4.854;2022-08-24T07:23:45;21.35;;;14.25;;
69678;SDS011;56915;52.046;4.854;2022-08-24T07:26:14;21.48;;;13.43;;
69678;SDS011;56915;52.046;4.854;2022-08-24T07:28:56;18.83;;;13.57;;
69678;SDS011;56915;52.046;4.854;2022-08-24T07:31:55;21.17;;;13.65;;
69678;SDS011;56915;52.046;4.854;2022-08-24T07:34:22;25.23;;;13.90;;
69678;SDS011;56915;52.046;4.854;2022-08-24T07:36:49;17.25;;;13.02;;
69678;SDS011;56915;52.046;4.854;2022-08-24T07:39:17;19.77;;;13.20;;
69678;SDS011;56915;52.046;4.854;2022-08-24T07:41:44;17.67;;;11.38;;
69678;SDS011;56915;52.046;4.854;2022-08-24T07:44:31;15.00;;;10.07;;
69678;SDS011;56915;52.046;4.854;2022-08-24T07:46:58;14.43;;;9.77;;
69678;SDS011;56915;52.046;4.854;2022-08-24T07:49:44;15.10;;;10.77;;
69678;SDS011;56915;52.046;4.854;2022-08-24T07:52:11;15.20;;;11.50;;
69678;SDS011;56915;52.046;4.854;2022-08-24T07:54:38;14.82;;;10.43;;
69678;SDS011;56915;52.046;4.854;2022-08-24T07:57:06;16.45;;;10.38;;
69678;SDS011;56915;52.046;4.854;2022-08-24T07:59:33;15.10;;;10.63;;
69678;SDS011;56915;52.046;4.854;2022-08-24T08:02:01;17.65;;;11.13;;
69678;SDS011;56915;52.046;4.854;2022-08-24T08:04:29;16.45;;;11.45;;
69678;SDS011;56915;52.046;4.854;2022-08-24T08:06:57;16.13;;;10.48;;
69678;SDS011;56915;52.046;4.854;2022-08-24T08:09:26;15.48;;;10.43;;
69678;SDS011;56915;52.046;4.854;2022-08-24T08:11:53;14.63;;;10.07;;
69678;SDS011;56915;52.046;4.854;2022-08-24T08:14:19;14.07;;;9.35;;
69678;SDS011;56915;52.046;4.854;2022-08-24T08:16:46;13.82;;;9.75;;
69678;SDS011;56915;52.046;4.854;2022-08-24T08:19:24;16.25;;;10.10;;
69678;SDS011;56915;52.046;4.854;2022-08-24T08:21:51;16.38;;;10.00;;
69678;SDS011;56915;52.046;4.854;2022-08-24T08:24:38;12.97;;;9.20;;
69678;SDS011;56915;52.046;4.854;2022-08-24T08:27:08;14.27;;;9.68;;
69678;SDS011;56915;52.046;4.854;2022-08-24T08:29:36;12.25;;;8.02;;
69678;SDS011;56915;52.046;4.854;2022-08-24T08:32:08;11.65;;;8.40;;
69678;SDS011;56915;52.046;4.854;2022-08-24T08:34:37;13.68;;;8.95;;
69678;SDS011;56915;52.046;4.854;2022-08-24T08:37:03;13.73;;;9.03;;
69678;SDS011;56915;52.046;4.854;2022-08-24T08:39:31;13.95;;;9.02;;
69678;SDS011;56915;52.046;4.854;2022-08-24T08:55:41;11.85;;;6.45;;
69678;SDS011;56915;52.046;4.854;2022-08-24T09:04:16;10.23;;;6.00;;
69678;SDS011;56915;52.046;4.854;2022-08-24T09:07:09;7.35;;;5.68;;
69678;SDS011;56915;52.046;4.854;2022-08-24T09:18:29;10.07;;;7.53;;
69678;SDS011;56915;52.046;4.854;2022-08-24T09:35:01;7.97;;;5.80;;
69678;SDS011;56915;52.046;4.854;2022-08-24T09:37:52;6.68;;;5.40;;
69678;SDS011;56915;52.046;4.854;2022-08-24T09:46:26;8.13;;;6.73;;
69678;SDS011;56915;52.046;4.854;2022-08-24T10:00:52;7.00;;;5.23;;
69678;SDS011;56915;52.046;4.854;2022-08-24T10:20:24;6.15;;;4.47;;
69678;SDS011;56915;52.046;4.854;2022-08-24T10:31:21;4.90;;;3.78;;
69678;SDS011;56915;52.046;4.854;2022-08-24T10:36:43;4.05;;;2.92;;
69678;SDS011;56915;52.046;4.854;2022-08-24T10:45:23;3.72;;;2.42;;
69678;SDS011;56915;52.046;4.854;2022-08-24T10:48:25;3.33;;;3.03;;
69678;SDS011;56915;52.046;4.854;2022-08-24T10:53:48;4.53;;;3.53;;
69678;SDS011;56915;52.046;4.854;2022-08-24T10:56:18;3.50;;;3.13;;
69678;SDS011;56915;52.046;4.854;2022-08-24T10:59:01;4.47;;;3.53;;
69678;SDS011;56915;52.046;4.854;2022-08-24T11:01:37;6.32;;;4.50;;
69678;SDS011;56915;52.046;4.854;2022-08-24T11:04:08;5.85;;;3.83;;
69678;SDS011;56915;52.046;4.854;2022-08-24T11:09:11;4.00;;;2.80;;
69678;SDS011;56915;52.046;4.854;2022-08-24T11:11:46;3.90;;;3.17;;
69678;SDS011;56915;52.046;4.854;2022-08-24T11:16:42;4.00;;;3.40;;
69678;SDS011;56915;52.046;4.854;2022-08-24T11:19:16;4.80;;;4.10;;
69678;SDS011;56915;52.046;4.854;2022-08-24T11:21:57;4.67;;;3.50;;
69678;SDS011;56915;52.046;4.854;2022-08-24T11:27:07;4.03;;;3.10;;
69678;SDS011;56915;52.046;4.854;2022-08-24T11:32:35;4.20;;;3.53;;
69678;SDS011;56915;52.046;4.854;2022-08-24T11:35:21;3.97;;;3.37;;
69678;SDS011;56915;52.046;4.854;2022-08-24T11:40:35;4.78;;;3.05;;
69678;SDS011;56915;52.046;4.854;2022-08-24T11:45:42;3.90;;;3.50;;
69678;SDS011;56915;52.046;4.854;2022-08-24T11:53:51;3.33;;;2.85;;
69678;SDS011;56915;52.046;4.854;2022-08-24T11:56:46;3.88;;;1.60;;
69678;SDS011;56915;52.046;4.854;2022-08-24T12:02:07;1.80;;;1.70;;
69678;SDS011;56915;52.046;4.854;2022-08-24T12:07:48;2.97;;;2.50;;
69678;SDS011;56915;52.046;4.854;2022-08-24T12:10:31;3.10;;;2.50;;
69678;SDS011;56915;52.046;4.854;2022-08-24T12:15:53;2.77;;;1.93;;
69678;SDS011;56915;52.046;4.854;2022-08-24T12:21:30;3.08;;;2.20;;
69678;SDS011;56915;52.046;4.854;2022-08-24T12:24:03;3.65;;;2.40;;
69678;SDS011;56915;52.046;4.854;2022-08-24T12:26:45;3.20;;;2.20;;
69678;SDS011;56915;52.046;4.854;2022-08-24T12:29:37;3.07;;;2.00;;
69678;SDS011;56915;52.046;4.854;2022-08-24T12:32:13;2.78;;;2.05;;
69678;SDS011;56915;52.046;4.854;2022-08-24T12:34:53;2.75;;;2.03;;
69678;SDS011;56915;52.046;4.854;2022-08-24T12:37:29;1.80;;;1.70;;
69678;SDS011;56915;52.046;4.854;2022-08-24T12:40:19;2.53;;;2.20;;
69678;SDS011;56915;52.046;4.854;2022-08-24T12:42:53;5.20;;;2.00;;
69678;SDS011;56915;52.046;4.854;2022-08-24T12:45:29;2.95;;;2.00;;
69678;SDS011;56915;52.046;4.854;2022-08-24T13:01:34;4.22;;;2.40;;
69678;SDS011;56915;52.046;4.854;2022-08-24T13:04:08;2.08;;;1.90;;
69678;SDS011;56915;52.046;4.854;2022-08-24T13:06:50;2.22;;;2.03;;
69678;SDS011;56915;52.046;4.854;2022-08-24T13:09:26;3.50;;;1.80;;
69678;SDS011;56915;52.046;4.854;2022-08-24T13:11:57;2.75;;;1.77;;
69678;SDS011;56915;52.046;4.854;2022-08-24T13:14:52;2.38;;;1.90;;
69678;SDS011;56915;52.046;4.854;2022-08-24T13:17:40;2.78;;;1.67;;
69678;SDS011;56915;52.046;4.854;2022-08-24T13:20:21;2.55;;;1.90;;
69678;SDS011;56915;52.046;4.854;2022-08-24T13:33:44;2.53;;;1.85;;
69678;SDS011;56915;52.046;4.854;2022-08-24T13:47:43;4.15;;;2.25;;
69678;SDS011;56915;52.046;4.854;2022-08-24T13:50:35;5.00;;;1.93;;
69678;SDS011;56915;52.046;4.854;2022-08-24T13:58:51;3.92;;;2.40;;
69678;SDS011;56915;52.046;4.854;2022-08-24T14:15:30;2.10;;;1.90;;
69678;SDS011;56915;52.046;4.854;2022-08-24T14:29:24;2.10;;;2.00;;
69678;SDS011;56915;52.046;4.854;2022-08-24T14:34:41;1.77;;;1.67;;
69678;SDS011;56915;52.046;4.854;2022-08-24T14:44:16;2.75;;;2.00;;
69678;SDS011;56915;52.046;4.854;2022-08-24T14:46:38;2.00;;;1.90;;
69678;SDS011;56915;52.046;4.854;2022-08-24T14:59:54;1.80;;;1.70;;
69678;SDS011;56915;52.046;4.854;2022-08-24T15:07:54;2.55;;;2.35;;
69678;SDS011;56915;52.046;4.854;2022-08-24T15:10:34;1.90;;;1.80;;
69678;SDS011;56915;52.046;4.854;2022-08-24T15:13:12;2.23;;;2.00;;
69678;SDS011;56915;52.046;4.854;2022-08-24T15:16:10;2.63;;;2.42;;
69678;SDS011;56915;52.046;4.854;2022-08-24T15:21:51;3.92;;;2.50;;
69678;SDS011;56915;52.046;4.854;2022-08-24T15:25:03;2.70;;;2.50;;
69678;SDS011;56915;52.046;4.854;2022-08-24T15:30:24;3.10;;;2.47;;
69678;SDS011;56915;52.046;4.854;2022-08-24T15:33:10;4.25;;;2.67;;
69678;SDS011;56915;52.046;4.854;2022-08-24T15:35:45;2.75;;;2.55;;
69678;SDS011;56915;52.046;4.854;2022-08-24T15:41:12;3.00;;;2.80;;
69678;SDS011;56915;52.046;4.854;2022-08-24T15:46:41;3.10;;;2.90;;
69678;SDS011;56915;52.046;4.854;2022-08-24T15:49:18;3.42;;;2.80;;
69678;SDS011;56915;52.046;4.854;2022-08-24T15:51:53;4.15;;;3.50;;
69678;SDS011;56915;52.046;4.854;2022-08-24T15:54:28;3.00;;;2.80;;
69678;SDS011;56915;52.046;4.854;2022-08-24T15:57:00;6.07;;;2.72;;
69678;SDS011;56915;52.046;4.854;2022-08-24T15:59:29;2.88;;;2.60;;
69678;SDS011;56915;52.046;4.854;2022-08-24T16:10:29;2.72;;;2.50;;
69678;SDS011;56915;52.046;4.854;2022-08-24T16:15:35;3.63;;;3.30;;
69678;SDS011;56915;52.046;4.854;2022-08-24T16:21:26;3.60;;;3.40;;
69678;SDS011;56915;52.046;4.854;2022-08-24T16:24:45;2.95;;;2.72;;
69678;SDS011;56915;52.046;4.854;2022-08-24T16:32:15;3.15;;;2.95;;
69678;SDS011;56915;52.046;4.854;2022-08-24T16:37:34;4.93;;;3.45;;
69678;SDS011;56915;52.046;4.854;2022-08-24T16:40:01;2.97;;;2.78;;
69678;SDS011;56915;52.046;4.854;2022-08-24T16:42:29;3.08;;;2.75;;
69678;SDS011;56915;52.046;4.854;2022-08-24T16:44:57;3.17;;;2.58;;
69678;SDS011;56915;52.046;4.854;2022-08-24T16:47:25;2.57;;;2.47;;
69678;SDS011;56915;52.046;4.854;2022-08-24T16:49:53;2.72;;;2.53;;
69678;SDS011;56915;52.046;4.854;2022-08-24T16:52:20;2.75;;;2.50;;
69678;SDS011;56915;52.046;4.854;2022-08-24T16:54:47;2.97;;;2.60;;
69678;SDS011;56915;52.046;4.854;2022-08-24T16:57:21;3.30;;;2.95;;
69678;SDS011;56915;52.046;4.854;2022-08-24T16:59:50;2.53;;;2.33;;
69678;SDS011;56915;52.046;4.854;2022-08-24T17:02:18;3.67;;;2.10;;
69678;SDS011;56915;52.046;4.854;2022-08-24T17:04:47;2.67;;;2.30;;
69678;SDS011;56915;52.046;4.854;2022-08-24T17:07:15;2.45;;;2.25;;
69678;SDS011;56915;52.046;4.854;2022-08-24T17:09:46;2.42;;;2.22;;
69678;SDS011;56915;52.046;4.854;2022-08-24T17:12:13;2.37;;;2.07;;
69678;SDS011;56915;52.046;4.854;2022-08-24T17:14:41;3.47;;;2.17;;
69678;SDS011;56915;52.046;4.854;2022-08-24T17:17:10;2.97;;;2.03;;
69678;SDS011;56915;52.046;4.854;2022-08-24T17:19:42;2.47;;;2.22;;
69678;SDS011;56915;52.046;4.854;2022-08-24T17:22:09;2.53;;;2.00;;
69678;SDS011;56915;52.046;4.854;2022-08-24T17:24:41;3.07;;;1.97;;
69678;SDS011;56915;52.046;4.854;2022-08-24T17:27:08;6.28;;;2.13;;
69678;SDS011;56915;52.046;4.854;2022-08-24T17:29:35;4.28;;;2.22;;
69678;SDS011;56915;52.046;4.854;2022-08-24T17:32:02;2.53;;;2.33;;
69678;SDS011;56915;52.046;4.854;2022-08-24T17:34:29;3.90;;;2.63;;
69678;SDS011;56915;52.046;4.854;2022-08-24T17:36:57;2.63;;;2.43;;
69678;SDS011;56915;52.046;4.854;2022-08-24T17:39:24;3.58;;;3.08;;
69678;SDS011;56915;52.046;4.854;2022-08-24T17:41:52;3.60;;;3.30;;
69678;SDS011;56915;52.046;4.854;2022-08-24T17:44:22;4.57;;;3.80;;
69678;SDS011;56915;52.046;4.854;2022-08-24T17:46:54;5.97;;;4.38;;
69678;SDS011;56915;52.046;4.854;2022-08-24T17:49:26;16.37;;;4.37;;
69678;SDS011;56915;52.046;4.854;2022-08-24T17:51:53;5.10;;;4.60;;
69678;SDS011;56915;52.046;4.854;2022-08-24T17:54:21;5.88;;;5.05;;
69678;SDS011;56915;52.046;4.854;2022-08-24T17:56:49;7.30;;;4.60;;
69678;SDS011;56915;52.046;4.854;2022-08-24T17:59:27;5.38;;;4.80;;
69678;SDS011;56915;52.046;4.854;2022-08-24T18:02:00;6.80;;;4.40;;
69678;SDS011;56915;52.046;4.854;2022-08-24T18:04:29;8.20;;;4.53;;
69678;SDS011;56915;52.046;4.854;2022-08-24T18:06:59;5.47;;;4.57;;
69678;SDS011;56915;52.046;4.854;2022-08-24T18:09:32;6.80;;;5.13;;
69678;SDS011;56915;52.046;4.854;2022-08-24T18:12:02;7.20;;;5.00;;
69678;SDS011;56915;52.046;4.854;2022-08-24T18:14:31;5.57;;;5.03;;
69678;SDS011;56915;52.046;4.854;2022-08-24T18:17:04;7.35;;;5.45;;
69678;SDS011;56915;52.046;4.854;2022-08-24T18:19:34;8.10;;;5.75;;
69678;SDS011;56915;52.046;4.854;2022-08-24T18:22:04;6.43;;;5.35;;
69678;SDS011;56915;52.046;4.854;2022-08-24T18:24:31;7.10;;;5.30;;
69678;SDS011;56915;52.046;4.854;2022-08-24T18:26:59;5.90;;;5.20;;
69678;SDS011;56915;52.046;4.854;2022-08-24T18:29:35;7.03;;;5.55;;
69678;SDS011;56915;52.046;4.854;2022-08-24T18:32:06;8.43;;;5.53;;
69678;SDS011;56915;52.046;4.854;2022-08-24T18:34:33;6.15;;;5.47;;
69678;SDS011;56915;52.046;4.854;2022-08-24T18:37:00;8.38;;;5.80;;
69678;SDS011;56915;52.046;4.854;2022-08-24T18:39:27;9.80;;;6.27;;
69678;SDS011;56915;52.046;4.854;2022-08-24T18:41:54;7.53;;;6.07;;
69678;SDS011;56915;52.046;4.854;2022-08-24T18:44:24;7.18;;;6.32;;
69678;SDS011;56915;52.046;4.854;2022-08-24T18:46:56;14.20;;;7.20;;
69678;SDS011;56915;52.046;4.854;2022-08-24T18:49:23;18.58;;;7.65;;
69678;SDS011;56915;52.046;4.854;2022-08-24T18:51:50;8.73;;;6.43;;
69678;SDS011;56915;52.046;4.854;2022-08-24T18:54:18;8.15;;;6.95;;
69678;SDS011;56915;52.046;4.854;2022-08-24T18:56:47;8.63;;;6.80;;
69678;SDS011;56915;52.046;4.854;2022-08-24T18:59:15;8.00;;;6.70;;
69678;SDS011;56915;52.046;4.854;2022-08-24T19:01:44;9.25;;;7.07;;
69678;SDS011;56915;52.046;4.854;2022-08-24T19:04:32;8.57;;;6.80;;
69678;SDS011;56915;52.046;4.854;2022-08-24T19:07:06;9.80;;;7.53;;
69678;SDS011;56915;52.046;4.854;2022-08-24T19:09:33;10.70;;;7.72;;
69678;SDS011;56915;52.046;4.854;2022-08-24T19:12:00;10.73;;;7.93;;
69678;SDS011;56915;52.046;4.854;2022-08-24T19:14:29;13.55;;;8.35;;
69678;SDS011;56915;52.046;4.854;2022-08-24T19:16:56;10.23;;;8.10;;